Time;durP1;ratioP1;P1;durP2;ratioP2;P2;SDS_P1;SDS_P2;PMS_P1;PMS_P2;Temp;Humidity;BMP_temperature;BMP_pressure;BME280_temperature;BME280_humidity;BME280_pressure;Samples;Min_cycle;Max_cycle;Signal;HPM_P1;HPM_P2
2022/05/12 00:00:22;;;;;;;;;;;11.90;99.90;;;;;;5110419;28;19992;-79
2022/05/12 00:02:47;;;;;;;;;;;11.90;99.90;;;;;;5110846;28;19930;-79
2022/05/12 00:05:16;;;;;;;;;;;11.90;99.90;;;;;;5109984;28;20810;-79
2022/05/12 00:07:43;;;;;;;;;;;11.90;99.90;;;;;;5103513;28;19924;-79
2022/05/12 00:10:09;;;;;;;;;;;12.00;99.90;;;;;;5110161;28;20048;-79
2022/05/12 00:12:35;;;;;;;;;;;11.90;99.90;;;;;;5088661;28;19935;-79
2022/05/12 00:15:02;;;;;;;;;;;12.00;99.90;;;;;;5091785;28;19931;-79
2022/05/12 00:17:28;;;;;;;;;;;12.00;99.90;;;;;;5091704;28;19946;-79
2022/05/12 00:19:53;;;;;;;;;;;12.00;99.90;;;;;;5092043;28;20400;-78
2022/05/12 00:22:19;;;;;;;;;;;12.00;99.90;;;;;;5110002;28;19931;-79
2022/05/12 00:24:44;;;;;;;;;;;12.00;99.90;;;;;;5110165;28;19928;-79
2022/05/12 00:27:10;;;;;;;;;;;12.00;99.90;;;;;;5110154;28;19924;-79
2022/05/12 00:29:35;;;;;;;;;;;12.00;99.90;;;;;;5109987;28;20010;-79
2022/05/12 00:32:01;;;;;;;;;;;12.00;99.90;;;;;;5109845;28;19923;-79
2022/05/12 00:34:26;;;;;;;;;;;11.90;99.90;;;;;;5091433;28;19927;-79
2022/05/12 00:36:52;;;;;;;;;;;11.90;99.90;;;;;;5110209;28;19923;-79
2022/05/12 00:39:17;;;;;;;;;;;11.80;99.90;;;;;;5109734;28;20382;-79
2022/05/12 00:41:43;;;;;;;;;;;11.70;99.90;;;;;;5109869;28;19931;-79
2022/05/12 00:44:10;;;;;;;;;;;11.70;99.90;;;;;;5109826;28;20026;-79
2022/05/12 00:46:37;;;;;;;;;;;11.60;99.90;;;;;;5107813;28;19949;-79
2022/05/12 00:49:09;;;;;;;;;;;11.60;99.90;;;;;;5091803;28;19928;-79
2022/05/12 00:51:37;;;;;;;;;;;11.50;99.90;;;;;;5109736;28;19934;-78
2022/05/12 00:54:05;;;;;;;;;;;11.50;99.90;;;;;;5109603;28;19932;-79
2022/05/12 00:56:32;;;;;;;;;;;11.40;99.90;;;;;;5109377;28;20512;-78
2022/05/12 00:59:00;;;;;;;;;;;11.40;99.90;;;;;;5091805;28;20751;-78
2022/05/12 01:01:26;;;;;;;;;;;11.30;99.90;;;;;;5091622;28;19927;-78
2022/05/12 01:03:52;;;;;;;;;;;11.30;99.90;;;;;;5088351;28;19947;-78
2022/05/12 01:06:17;;;;;;;;;;;11.30;99.90;;;;;;5087912;28;20374;-78
2022/05/12 01:08:44;;;;;;;;;;;11.20;99.90;;;;;;5088552;28;19986;-78
2022/05/12 01:11:11;;;;;;;;;;;11.20;99.90;;;;;;5089294;28;19924;-78
2022/05/12 01:13:37;;;;;;;;;;;11.10;99.90;;;;;;5088033;28;20377;-78
2022/05/12 01:16:05;;;;;;;;;;;11.10;99.90;;;;;;5089626;28;19924;-79
2022/05/12 01:18:31;;;;;;;;;;;11.10;99.90;;;;;;5093405;28;19966;-79
2022/05/12 01:20:57;;;;;;;;;;;11.00;99.90;;;;;;5094718;28;19923;-78
2022/05/12 01:23:29;;;;;;;;;;;11.00;99.90;;;;;;5113643;28;19923;-78
2022/05/12 01:25:59;;;;;;;;;;;11.00;99.90;;;;;;5113635;28;19927;-78
2022/05/12 01:28:25;;;;;;;;;;;10.90;99.90;;;;;;5095187;28;20373;-78
2022/05/12 01:30:50;;;;;;;;;;;10.90;99.90;;;;;;5078547;28;19930;-78
2022/05/12 01:33:16;;;;;;;;;;;10.90;99.90;;;;;;5113246;28;20369;-78
2022/05/12 01:35:42;;;;;;;;;;;10.90;99.90;;;;;;5113062;28;19923;-78
2022/05/12 01:38:07;;;;;;;;;;;10.80;99.90;;;;;;5095142;28;19924;-78
2022/05/12 01:40:33;;;;;;;;;;;10.80;99.90;;;;;;5113250;28;19931;-79
2022/05/12 01:42:58;;;;;;;;;;;10.80;99.90;;;;;;5112787;28;20470;-78
2022/05/12 01:45:24;;;;;;;;;;;10.90;99.90;;;;;;5112225;28;19934;-78
2022/05/12 01:47:50;;;;;;;;;;;10.80;99.90;;;;;;5094407;28;19931;-78
2022/05/12 01:50:15;;;;;;;;;;;10.80;99.90;;;;;;5076987;28;20101;-79
2022/05/12 01:52:43;;;;;;;;;;;10.80;99.90;;;;;;5076752;28;19924;-79
2022/05/12 01:55:10;;;;;;;;;;;10.80;99.90;;;;;;5073435;28;19924;-78
2022/05/12 01:57:35;;;;;;;;;;;10.80;99.90;;;;;;5090882;28;19935;-79
2022/05/12 02:00:01;;;;;;;;;;;10.70;99.90;;;;;;5074379;28;19924;-78
2022/05/12 02:02:28;;;;;;;;;;;10.70;99.90;;;;;;5091207;28;19924;-79
2022/05/12 02:04:53;;;;;;;;;;;10.60;99.90;;;;;;5091439;28;19969;-78
2022/05/12 02:07:19;;;;;;;;;;;10.60;99.90;;;;;;5112667;28;20020;-78
2022/05/12 02:09:44;;;;;;;;;;;10.50;99.90;;;;;;5094419;28;20308;-78
2022/05/12 02:12:10;;;;;;;;;;;10.50;99.90;;;;;;5094194;28;19931;-78
2022/05/12 02:14:36;;;;;;;;;;;10.40;99.90;;;;;;5073645;28;20414;-78
2022/05/12 02:17:01;;;;;;;;;;;10.40;99.90;;;;;;5074211;28;20301;-79
2022/05/12 02:19:27;;;;;;;;;;;10.30;99.90;;;;;;5091974;28;19924;-78
2022/05/12 02:21:54;;;;;;;;;;;10.30;99.90;;;;;;5077610;28;19928;-79
2022/05/12 02:24:20;;;;;;;;;;;10.30;99.90;;;;;;5077170;28;19931;-79
2022/05/12 02:26:46;;;;;;;;;;;10.20;99.90;;;;;;5112615;28;20309;-79
2022/05/12 02:29:11;;;;;;;;;;;10.20;99.90;;;;;;5112317;28;20410;-79
2022/05/12 02:31:37;;;;;;;;;;;10.10;99.90;;;;;;5111731;28;19993;-79
2022/05/12 02:34:02;;;;;;;;;;;10.10;99.90;;;;;;5112308;28;19924;-79
2022/05/12 02:36:28;;;;;;;;;;;10.10;99.90;;;;;;5112240;28;19927;-79
2022/05/12 02:38:53;;;;;;;;;;;10.10;99.90;;;;;;5111882;28;19949;-78
2022/05/12 02:41:19;;;;;;;;;;;10.00;99.90;;;;;;5111895;28;19971;-78
2022/05/12 02:43:44;;;;;;;;;;;10.00;99.90;;;;;;5094011;28;19958;-78
2022/05/12 02:46:12;;;;;;;;;;;10.00;99.90;;;;;;5111376;28;19969;-79
2022/05/12 02:48:39;;;;;;;;;;;9.90;99.90;;;;;;5111469;28;20393;-79
2022/05/12 02:51:05;;;;;;;;;;;9.90;99.90;;;;;;5111418;28;19947;-78
2022/05/12 02:53:31;;;;;;;;;;;9.80;99.90;;;;;;5093173;28;19924;-79
2022/05/12 02:55:57;;;;;;;;;;;9.80;99.90;;;;;;5111338;28;19982;-78
2022/05/12 02:58:23;;;;;;;;;;;9.80;99.90;;;;;;5111474;28;19923;-79
2022/05/12 03:00:48;;;;;;;;;;;9.80;99.90;;;;;;5111569;28;19923;-79
2022/05/12 03:03:14;;;;;;;;;;;9.80;99.90;;;;;;5093361;28;19928;-78
2022/05/12 03:05:40;;;;;;;;;;;9.80;99.90;;;;;;5093610;28;19927;-79
2022/05/12 03:08:05;;;;;;;;;;;9.80;99.90;;;;;;5111403;28;19931;-79
2022/05/12 03:10:32;;;;;;;;;;;9.70;99.90;;;;;;5110171;28;19935;-78
2022/05/12 03:12:58;;;;;;;;;;;9.70;99.90;;;;;;5090146;28;19935;-79
2022/05/12 03:15:23;;;;;;;;;;;9.70;99.90;;;;;;5110721;28;19923;-79
2022/05/12 03:17:49;;;;;;;;;;;9.70;99.90;;;;;;5111451;28;19924;-79
2022/05/12 03:20:16;;;;;;;;;;;9.70;99.90;;;;;;5111011;28;19928;-79
2022/05/12 03:22:42;;;;;;;;;;;9.70;99.90;;;;;;5111155;28;19968;-79
2022/05/12 03:25:10;;;;;;;;;;;9.70;99.90;;;;;;5111026;28;20014;-79
2022/05/12 03:27:35;;;;;;;;;;;9.70;99.90;;;;;;5110949;28;20396;-79
2022/05/12 03:30:01;;;;;;;;;;;9.70;99.90;;;;;;5110276;28;19923;-79
2022/05/12 03:32:27;;;;;;;;;;;9.70;99.90;;;;;;5110899;28;19924;-79
2022/05/12 03:34:52;;;;;;;;;;;9.70;99.90;;;;;;5110879;28;20378;-79
2022/05/12 03:37:18;;;;;;;;;;;9.70;99.90;;;;;;5110311;28;19924;-79
2022/05/12 03:39:44;;;;;;;;;;;9.70;99.90;;;;;;5110629;28;19977;-79
2022/05/12 03:42:15;;;;;;;;;;;9.70;99.90;;;;;;5075692;28;20282;-79
2022/05/12 03:44:46;;;;;;;;;;;9.80;99.90;;;;;;5110580;28;19928;-78
2022/05/12 03:47:14;;;;;;;;;;;9.80;99.90;;;;;;5092109;28;19940;-79
2022/05/12 03:49:41;;;;;;;;;;;9.80;99.90;;;;;;5110789;28;19976;-79
2022/05/12 03:52:07;;;;;;;;;;;9.70;99.90;;;;;;5110700;28;19953;-79
2022/05/12 03:54:33;;;;;;;;;;;9.80;99.90;;;;;;5110067;28;19923;-79
2022/05/12 03:57:00;;;;;;;;;;;9.90;99.90;;;;;;5092342;28;19930;-79
2022/05/12 03:59:25;;;;;;;;;;;9.80;99.90;;;;;;5110564;28;19980;-79
2022/05/12 04:01:51;;;;;;;;;;;9.80;99.90;;;;;;5092393;28;19928;-79
2022/05/12 04:04:16;;;;;;;;;;;9.90;99.90;;;;;;5110036;28;20570;-79
2022/05/12 04:06:42;;;;;;;;;;;9.90;99.90;;;;;;5110407;28;19931;-79
2022/05/12 04:09:07;;;;;;;;;;;9.90;99.90;;;;;;5110412;28;19931;-78
2022/05/12 04:11:33;;;;;;;;;;;9.90;99.90;;;;;;5110221;28;19971;-79
2022/05/12 04:13:59;;;;;;;;;;;10.00;99.90;;;;;;5109869;28;19981;-79
2022/05/12 04:16:24;;;;;;;;;;;10.00;99.90;;;;;;5110455;28;19950;-79
2022/05/12 04:18:50;;;;;;;;;;;10.00;99.90;;;;;;5110104;28;19935;-79
2022/05/12 04:21:16;;;;;;;;;;;10.00;99.90;;;;;;5109912;28;20333;-79
2022/05/12 04:23:42;;;;;;;;;;;10.10;99.90;;;;;;5109970;28;19924;-79
2022/05/12 04:26:08;;;;;;;;;;;10.10;99.90;;;;;;5109837;28;19973;-79
2022/05/12 04:28:33;;;;;;;;;;;10.10;99.90;;;;;;5109662;28;19928;-79
2022/05/12 04:30:59;;;;;;;;;;;10.20;99.90;;;;;;5091577;28;19923;-79
2022/05/12 04:36:08;;;;;;;;;;;10.30;99.90;;;;;;5109364;28;19932;-79
2022/05/12 04:38:34;;;;;;;;;;;10.30;99.90;;;;;;5109945;28;19968;-79
2022/05/12 04:41:00;;;;;;;;;;;10.30;99.90;;;;;;5109787;28;19924;-79
2022/05/12 04:43:27;;;;;;;;;;;10.30;99.90;;;;;;5109690;28;20026;-79
2022/05/12 04:45:52;;;;;;;;;;;10.40;99.90;;;;;;5109458;28;19924;-79
2022/05/12 04:48:18;;;;;;;;;;;10.50;99.90;;;;;;5109108;28;19985;-79
2022/05/12 04:50:43;;;;;;;;;;;10.50;99.90;;;;;;5091520;28;20010;-79
2022/05/12 04:53:09;;;;;;;;;;;10.50;99.90;;;;;;5113105;28;19927;-79
2022/05/12 04:55:35;;;;;;;;;;;10.60;99.90;;;;;;5095266;28;20061;-79
2022/05/12 04:58:01;;;;;;;;;;;10.60;99.90;;;;;;5113407;28;19923;-79
2022/05/12 05:00:45;;;;;;;;;;;10.70;99.90;;;;;;5113831;28;19923;-79
2022/05/12 05:03:11;;;;;;;;;;;10.70;99.90;;;;;;5113053;28;19924;-79
2022/05/12 05:05:37;;;;;;;;;;;10.80;99.90;;;;;;5113930;28;19975;-79
2022/05/12 05:08:03;;;;;;;;;;;10.80;99.90;;;;;;5078186;28;19974;-79
2022/05/12 05:10:28;;;;;;;;;;;10.90;99.90;;;;;;5095366;28;19924;-79
2022/05/12 05:12:54;;;;;;;;;;;10.90;99.90;;;;;;5113243;28;19968;-79
2022/05/12 05:15:21;;;;;;;;;;;11.00;99.90;;;;;;5095068;28;19924;-79
2022/05/12 05:17:47;;;;;;;;;;;11.00;99.90;;;;;;5114026;28;19928;-79
2022/05/12 05:20:14;;;;;;;;;;;11.10;99.90;;;;;;5113323;28;19928;-79
2022/05/12 05:22:40;;;;;;;;;;;11.10;99.90;;;;;;5113464;28;20384;-79
2022/05/12 05:25:06;;;;;;;;;;;11.10;99.90;;;;;;5095104;28;20014;-79
2022/05/12 05:27:31;;;;;;;;;;;11.20;99.90;;;;;;5112028;28;19946;-79
2022/05/12 05:29:58;;;;;;;;;;;11.30;99.90;;;;;;5113122;28;20013;-79
2022/05/12 05:32:23;;;;;;;;;;;11.30;99.90;;;;;;5112701;28;20601;-79
2022/05/12 05:34:49;;;;;;;;;;;11.40;99.90;;;;;;5094570;28;19938;-79
2022/05/12 05:37:14;;;;;;;;;;;11.50;99.90;;;;;;5113034;28;19931;-79
2022/05/12 05:39:40;;;;;;;;;;;11.50;99.90;;;;;;5094922;28;19927;-77
2022/05/12 05:42:09;;;;;;;;;;;11.60;99.90;;;;;;5112853;28;20016;-77
2022/05/12 05:44:34;;;;;;;;;;;11.60;99.90;;;;;;5074226;28;19924;-79
2022/05/12 05:47:00;;;;;;;;;;;11.70;99.90;;;;;;5085745;28;19947;-79
2022/05/12 05:49:27;;;;;;;;;;;11.80;99.90;;;;;;5109571;28;19931;-78
2022/05/12 05:54:36;;;;;;;;;;;11.90;99.90;;;;;;5109314;28;19932;-79
2022/05/12 05:57:03;;;;;;;;;;;12.00;99.90;;;;;;5111787;28;19931;-79
2022/05/12 05:59:28;;;;;;;;;;;12.00;99.90;;;;;;5111072;28;19923;-79
2022/05/12 06:01:54;;;;;;;;;;;12.00;99.90;;;;;;5111556;28;20679;-79
2022/05/12 06:04:20;;;;;;;;;;;12.10;99.90;;;;;;5111483;28;20328;-79
2022/05/12 06:06:45;;;;;;;;;;;12.20;99.90;;;;;;5111605;28;19928;-79
2022/05/12 06:09:12;;;;;;;;;;;12.20;99.90;;;;;;5111076;28;19984;-79
2022/05/12 06:11:38;;;;;;;;;;;12.20;99.90;;;;;;5111335;28;20010;-79
2022/05/12 06:14:04;;;;;;;;;;;12.20;99.90;;;;;;5093277;28;19923;-79
2022/05/12 06:16:31;;;;;;;;;;;12.30;99.90;;;;;;5111165;28;19950;-79
2022/05/12 06:18:56;;;;;;;;;;;12.30;99.90;;;;;;5111661;28;19928;-79
2022/05/12 06:21:22;;;;;;;;;;;12.40;99.90;;;;;;5111371;28;19923;-80
2022/05/12 06:23:47;;;;;;;;;;;12.40;99.90;;;;;;5111022;28;19934;-79
2022/05/12 06:26:14;;;;;;;;;;;12.40;99.90;;;;;;5111241;28;19950;-79
2022/05/12 06:28:42;;;;;;;;;;;12.50;99.90;;;;;;5111350;28;20600;-79
2022/05/12 06:31:08;;;;;;;;;;;12.50;99.90;;;;;;5111027;28;19932;-80
2022/05/12 06:33:33;;;;;;;;;;;12.60;99.90;;;;;;5111075;28;19976;-79
2022/05/12 06:36:05;;;;;;;;;;;12.70;99.90;;;;;;5110931;28;19924;-80
2022/05/12 06:38:31;;;;;;;;;;;12.70;99.90;;;;;;5111434;28;19949;-79
2022/05/12 06:40:56;;;;;;;;;;;12.80;99.90;;;;;;5110894;28;19951;-79
2022/05/12 06:43:23;;;;;;;;;;;12.80;99.90;;;;;;5110818;28;20389;-79
2022/05/12 06:45:49;;;;;;;;;;;12.90;99.90;;;;;;5048835;28;1757648;-79
2022/05/12 06:48:15;;;;;;;;;;;12.90;99.90;;;;;;5111619;28;20006;-79
2022/05/12 06:50:41;;;;;;;;;;;13.00;99.90;;;;;;5111903;28;20453;-79
2022/05/12 06:53:06;;;;;;;;;;;13.10;99.90;;;;;;5076849;28;19977;-79
2022/05/12 06:55:32;;;;;;;;;;;13.10;99.90;;;;;;5093507;28;20301;-79
2022/05/12 06:57:58;;;;;;;;;;;13.20;99.90;;;;;;5093109;28;19942;-79
2022/05/12 07:00:23;;;;;;;;;;;13.30;99.90;;;;;;5093457;28;20034;-79
2022/05/12 07:02:49;;;;;;;;;;;13.30;99.90;;;;;;5094008;28;19923;-79
2022/05/12 07:05:24;;;;;;;;;;;13.40;99.90;;;;;;5111663;28;20440;-79
2022/05/12 07:07:50;;;;;;;;;;;13.40;99.90;;;;;;5111291;28;19976;-79
2022/05/12 07:10:16;;;;;;;;;;;13.50;99.90;;;;;;5093176;28;19924;-79
2022/05/12 07:12:41;;;;;;;;;;;13.50;99.90;;;;;;5111402;28;19924;-79
2022/05/12 07:15:07;;;;;;;;;;;13.60;99.90;;;;;;5110458;28;19924;-79
2022/05/12 07:17:37;;;;;;;;;;;13.70;99.90;;;;;;5092792;28;20018;-80
2022/05/12 07:28:16;;;;;;;;;;;13.90;99.90;;;;;;5111160;28;19938;-79
2022/05/12 07:31:00;;;;;;;;;;;14.00;99.90;;;;;;5110975;28;20324;-79
2022/05/12 07:33:36;;;;;;;;;;;14.00;99.90;;;;;;5092904;28;20648;-80
2022/05/12 07:36:03;;;;;;;;;;;14.10;99.90;;;;;;5110941;28;19924;-80
2022/05/12 07:38:28;;;;;;;;;;;14.10;99.90;;;;;;5092565;28;19924;-79
2022/05/12 07:40:54;;;;;;;;;;;14.10;99.90;;;;;;5110633;28;20033;-80
2022/05/12 07:43:20;;;;;;;;;;;14.20;99.90;;;;;;5110890;28;20293;-79
2022/05/12 07:45:47;;;;;;;;;;;14.20;99.90;;;;;;5110712;28;19935;-80
2022/05/12 07:48:12;;;;;;;;;;;14.30;99.90;;;;;;5110709;28;20403;-80
2022/05/12 07:50:39;;;;;;;;;;;14.40;99.90;;;;;;5110665;28;19928;-79
2022/05/12 07:53:05;;;;;;;;;;;14.50;99.90;;;;;;5110782;28;20377;-80
2022/05/12 07:55:32;;;;;;;;;;;14.60;99.90;;;;;;5110587;28;19930;-80
2022/05/12 07:57:58;;;;;;;;;;;14.60;99.90;;;;;;5110592;28;19935;-80
2022/05/12 08:00:24;;;;;;;;;;;14.70;99.90;;;;;;5110583;28;19965;-80
2022/05/12 08:02:50;;;;;;;;;;;14.80;99.90;;;;;;5110677;28;20010;-80
2022/05/12 08:05:15;;;;;;;;;;;14.90;99.90;;;;;;5110027;28;20014;-80
2022/05/12 08:07:42;;;;;;;;;;;14.90;99.90;;;;;;5110209;28;20034;-79
2022/05/12 08:10:08;;;;;;;;;;;15.00;99.90;;;;;;5110238;28;19927;-79
2022/05/12 08:12:35;;;;;;;;;;;15.10;99.90;;;;;;5110445;28;19927;-79
2022/05/12 08:15:00;;;;;;;;;;;15.10;99.90;;;;;;5109980;28;19924;-80
2022/05/12 08:17:26;;;;;;;;;;;15.10;99.90;;;;;;5109221;28;20019;-80
2022/05/12 08:19:51;;;;;;;;;;;15.10;99.90;;;;;;5110380;28;19924;-79
2022/05/12 08:22:17;;;;;;;;;;;15.10;99.90;;;;;;5110101;28;19934;-79
2022/05/12 08:24:42;;;;;;;;;;;15.10;99.90;;;;;;5110437;28;19935;-80
2022/05/12 08:27:08;;;;;;;;;;;15.20;99.90;;;;;;5109902;28;19927;-79
2022/05/12 08:29:33;;;;;;;;;;;15.30;99.90;;;;;;5110053;28;20006;-79
2022/05/12 08:31:59;;;;;;;;;;;15.40;99.90;;;;;;5110059;28;20281;-80
2022/05/12 08:34:24;;;;;;;;;;;15.40;99.90;;;;;;5091535;28;19928;-80
2022/05/12 08:36:50;;;;;;;;;;;15.50;99.90;;;;;;5110430;28;20402;-80
2022/05/12 08:39:16;;;;;;;;;;;15.60;99.90;;;;;;5110156;28;19927;-79
2022/05/12 08:41:46;;;;;;;;;;;15.60;99.90;;;;;;5091587;28;19984;-80
2022/05/12 08:44:17;;;;;;;;;;;15.80;99.90;;;;;;5109610;28;19923;-79
2022/05/12 08:47:00;;;;;;;;;;;15.90;99.90;;;;;;5109827;28;20660;-80
2022/05/12 08:49:27;;;;;;;;;;;15.90;99.90;;;;;;5109708;28;20027;-79
2022/05/12 08:51:58;;;;;;;;;;;16.10;99.90;;;;;;5110094;28;20309;-80
2022/05/12 08:54:25;;;;;;;;;;;16.20;99.90;;;;;;5109684;28;20567;-79
2022/05/12 08:56:54;;;;;;;;;;;16.40;99.90;;;;;;5109541;28;19931;-80
2022/05/12 08:59:19;;;;;;;;;;;16.50;99.90;;;;;;5109961;28;19932;-79
2022/05/12 09:02:02;;;;;;;;;;;16.60;99.90;;;;;;5110007;28;19928;-79
2022/05/12 09:04:45;;;;;;;;;;;16.70;99.90;;;;;;5109247;28;19962;-80
2022/05/12 09:07:28;;;;;;;;;;;16.80;99.90;;;;;;5091300;28;19923;-80
2022/05/12 09:09:59;;;;;;;;;;;16.90;99.90;;;;;;5109698;28;19970;-80
2022/05/12 09:13:00;;;;;;;;;;;16.90;99.90;;;;;;5109360;28;19934;-79
2022/05/12 09:15:31;;;;;;;;;;;16.80;99.90;;;;;;5006673;28;19933;-80
2022/05/12 09:17:59;;;;;;;;;;;16.90;99.90;;;;;;5091266;28;19969;-80
2022/05/12 09:20:26;;;;;;;;;;;17.00;99.90;;;;;;5109323;28;19923;-79
2022/05/12 09:22:52;;;;;;;;;;;17.10;99.90;;;;;;5074588;28;20385;-79
2022/05/12 09:25:36;;;;;;;;;;;17.10;99.90;;;;;;5074543;28;19928;-80
2022/05/12 09:28:20;;;;;;;;;;;17.30;99.90;;;;;;5109315;28;19928;-80
2022/05/12 09:30:48;;;;;;;;;;;17.60;99.90;;;;;;5109195;28;19976;-78
2022/05/12 09:33:22;;;;;;;;;;;17.90;99.50;;;;;;5109392;28;20020;-78
2022/05/12 09:35:57;;;;;;;;;;;18.10;99.10;;;;;;5109185;28;19957;-78
2022/05/12 09:38:25;;;;;;;;;;;18.20;97.00;;;;;;5110897;28;19934;-78
2022/05/12 09:40:51;;;;;;;;;;;18.40;97.80;;;;;;5112995;28;20408;-78
2022/05/12 09:43:18;;;;;;;;;;;18.80;97.00;;;;;;5112981;28;19971;-78
2022/05/12 09:45:57;;;;;;;;;;;19.00;95.30;;;;;;5112540;28;20424;-78
2022/05/12 09:48:24;;;;;;;;;;;18.80;94.30;;;;;;5112814;28;19935;-78
2022/05/12 09:50:50;;;;;;;;;;;18.50;92.80;;;;;;5113129;28;19931;-78
2022/05/12 09:53:24;;;;;;;;;;;18.40;93.60;;;;;;5094420;28;19927;-78
2022/05/12 09:56:00;;;;;;;;;;;18.50;93.80;;;;;;5113099;28;19971;-78
2022/05/12 09:58:34;;;;;;;;;;;18.70;93.80;;;;;;5112233;28;19931;-78
2022/05/12 10:01:11;;;;;;;;;;;19.20;94.40;;;;;;5094543;28;20011;-78
2022/05/12 10:09:16;;;;;;;;;;;20.30;90.90;;;;;;5112304;28;20400;-79
2022/05/12 10:12:01;;;;;;;;;;;20.50;90.20;;;;;;5112680;28;19931;-78
2022/05/12 10:14:26;;;;;;;;;;;20.50;89.50;;;;;;5112626;28;19932;-78
2022/05/12 10:16:55;;;;;;;;;;;20.40;87.20;;;;;;5112402;28;19985;-78
2022/05/12 10:19:22;;;;;;;;;;;20.20;87.50;;;;;;5112498;28;19924;-78
2022/05/12 10:21:51;;;;;;;;;;;20.10;88.80;;;;;;5112618;28;19931;-78
2022/05/12 10:24:39;;;;;;;;;;;20.10;88.30;;;;;;5112486;28;20009;-78
2022/05/12 10:27:34;;;;;;;;;;;19.80;86.30;;;;;;5103675;28;19976;-78
2022/05/12 10:30:03;;;;;;;;;;;19.80;88.70;;;;;;5098447;28;19924;-78
2022/05/12 10:32:37;;;;;;;;;;;19.80;83.60;;;;;;5111947;28;19965;-78
2022/05/12 10:35:06;;;;;;;;;;;19.70;82.00;;;;;;5111957;28;19924;-78
2022/05/12 10:37:43;;;;;;;;;;;19.70;83.90;;;;;;5112223;28;19924;-79
2022/05/12 10:40:27;;;;;;;;;;;19.90;83.00;;;;;;5112142;28;20460;-78
2022/05/12 10:42:57;;;;;;;;;;;20.00;82.80;;;;;;5111766;28;19924;-78
2022/05/12 10:45:23;;;;;;;;;;;20.10;85.00;;;;;;5111740;28;19959;-78
2022/05/12 10:47:52;;;;;;;;;;;20.30;82.90;;;;;;5093926;28;19924;-79
2022/05/12 10:50:20;;;;;;;;;;;20.10;80.10;;;;;;5075997;28;20356;-78
2022/05/12 10:52:58;;;;;;;;;;;19.70;79.20;;;;;;5076588;28;19946;-78
2022/05/12 10:55:30;;;;;;;;;;;19.50;80.90;;;;;;5111570;28;20014;-79
2022/05/12 10:58:19;;;;;;;;;;;19.50;82.30;;;;;;5111758;28;19950;-79
2022/05/12 11:01:09;;;;;;;;;;;19.50;82.30;;;;;;5093480;28;19924;-78
2022/05/12 11:03:44;;;;;;;;;;;19.70;81.00;;;;;;5111654;28;19926;-79
2022/05/12 11:06:12;;;;;;;;;;;20.20;80.80;;;;;;5093379;28;20305;-79
2022/05/12 11:08:40;;;;;;;;;;;20.50;80.00;;;;;;5093662;28;19924;-79
2022/05/12 11:11:05;;;;;;;;;;;20.40;78.50;;;;;;5093503;28;19924;-79
2022/05/12 11:13:34;;;;;;;;;;;20.20;77.30;;;;;;5111573;28;19931;-78
2022/05/12 11:15:59;;;;;;;;;;;20.00;78.00;;;;;;5092916;28;19934;-78
2022/05/12 11:18:34;;;;;;;;;;;19.70;77.60;;;;;;5093047;28;20018;-78
2022/05/12 11:21:07;;;;;;;;;;;19.60;81.50;;;;;;5091695;28;19927;-78
2022/05/12 11:23:44;;;;;;;;;;;19.60;79.40;;;;;;5110431;28;19931;-78
2022/05/12 11:26:10;;;;;;;;;;;19.80;81.00;;;;;;5110579;28;19992;-78
2022/05/12 11:31:24;;;;;;;;;;;20.40;76.90;;;;;;5109500;28;19924;-78
2022/05/12 11:33:51;;;;;;;;;;;20.60;77.10;;;;;;5109959;28;19950;-78
2022/05/12 11:36:17;;;;;;;;;;;21.00;73.20;;;;;;5110034;28;19923;-79
2022/05/12 11:38:51;;;;;;;;;;;21.00;73.80;;;;;;5109772;28;19968;-78
2022/05/12 11:41:19;;;;;;;;;;;20.80;73.10;;;;;;5109654;28;19923;-78
2022/05/12 11:46:48;;;;;;;;;;;20.50;72.30;;;;;;5109973;28;20365;-78
2022/05/12 11:49:32;;;;;;;;;;;20.20;72.10;;;;;;5091720;28;19954;-78
2022/05/12 11:52:10;;;;;;;;;;;20.30;73.50;;;;;;5109831;28;19927;-78
2022/05/12 11:54:38;;;;;;;;;;;20.30;72.00;;;;;;5109872;28;19928;-78
2022/05/12 11:57:21;;;;;;;;;;;20.10;71.80;;;;;;5109391;28;19931;-78
2022/05/12 11:59:47;;;;;;;;;;;20.10;74.90;;;;;;5109242;28;19927;-78
2022/05/12 12:02:28;;;;;;;;;;;20.10;75.50;;;;;;5109724;28;19924;-78
2022/05/12 12:04:55;;;;;;;;;;;20.40;74.70;;;;;;5091645;28;19924;-78
2022/05/12 12:07:20;;;;;;;;;;;20.80;73.30;;;;;;5091336;28;19927;-78
2022/05/12 12:09:46;;;;;;;;;;;21.00;69.60;;;;;;5109344;28;19935;-79
2022/05/12 12:12:31;;;;;;;;;;;21.20;69.30;;;;;;5109083;28;20372;-78
2022/05/12 12:15:02;;;;;;;;;;;21.30;69.10;;;;;;5109145;28;19930;-77
2022/05/12 12:17:33;;;;;;;;;;;21.50;70.00;;;;;;5109316;28;20031;-79
2022/05/12 12:20:04;;;;;;;;;;;21.70;67.90;;;;;;5109297;28;19927;-78
2022/05/12 12:22:38;;;;;;;;;;;21.50;66.90;;;;;;5109059;28;20482;-78
2022/05/12 12:25:25;;;;;;;;;;;21.40;66.40;;;;;;5109414;28;20002;-79
2022/05/12 12:27:53;;;;;;;;;;;21.40;67.80;;;;;;5109296;28;19969;-78
2022/05/12 12:30:24;;;;;;;;;;;21.70;67.10;;;;;;5091194;28;19927;-79
2022/05/12 12:33:08;;;;;;;;;;;22.30;68.30;;;;;;5109291;28;19992;-78
2022/05/12 12:35:54;;;;;;;;;;;22.70;66.90;;;;;;5108633;28;19923;-78
2022/05/12 12:38:41;;;;;;;;;;;22.90;66.30;;;;;;5110120;28;20616;-78
2022/05/12 12:41:06;;;;;;;;;;;23.00;64.80;;;;;;5109976;28;19924;-78
2022/05/12 12:43:34;;;;;;;;;;;23.20;65.30;;;;;;5109978;28;19968;-79
2022/05/12 12:46:09;;;;;;;;;;;23.10;62.50;;;;;;5109822;28;19934;-78
2022/05/12 12:48:37;;;;;;;;;;;22.90;64.10;;;;;;5109655;28;19935;-78
2022/05/12 12:51:03;;;;;;;;;;;23.00;62.10;;;;;;5110120;28;19924;-78
2022/05/12 12:56:31;;;;;;;;;;;23.10;60.40;;;;;;5091566;28;20018;-79
2022/05/12 12:58:58;;;;;;;;;;;23.20;60.10;;;;;;5109920;28;19924;-79
2022/05/12 13:01:34;;;;;;;;;;;23.10;58.90;;;;;;5109174;28;20496;-79
2022/05/12 13:03:59;;;;;;;;;;;23.00;59.50;;;;;;5109721;28;20024;-79
2022/05/12 13:06:30;;;;;;;;;;;23.20;60.50;;;;;;5109690;28;19979;-78
2022/05/12 13:08:57;;;;;;;;;;;23.40;60.40;;;;;;5108824;28;20620;-79
2022/05/12 13:11:22;;;;;;;;;;;23.50;59.00;;;;;;5108994;28;20011;-79
2022/05/12 13:13:50;;;;;;;;;;;23.70;59.50;;;;;;5111650;28;20019;-79
2022/05/12 13:16:17;;;;;;;;;;;23.60;58.20;;;;;;5112622;28;19934;-78
2022/05/12 13:18:50;;;;;;;;;;;23.20;59.30;;;;;;5094662;28;19974;-78
2022/05/12 13:21:31;;;;;;;;;;;22.80;58.50;;;;;;5112855;28;19973;-78
2022/05/12 13:24:02;;;;;;;;;;;22.70;57.50;;;;;;5112622;28;20038;-78
2022/05/12 13:26:27;;;;;;;;;;;22.60;57.90;;;;;;5093957;28;20468;-78
2022/05/12 13:28:53;;;;;;;;;;;22.30;59.10;;;;;;5112643;28;20007;-78
2022/05/12 13:31:23;;;;;;;;;;;22.40;59.00;;;;;;5111972;28;19959;-78
2022/05/12 13:33:55;;;;;;;;;;;22.60;59.30;;;;;;5112570;28;19939;-78
2022/05/12 13:36:23;;;;;;;;;;;22.90;57.50;;;;;;5112173;28;20292;-78
2022/05/12 13:38:48;;;;;;;;;;;23.30;57.90;;;;;;5112230;28;19966;-79
2022/05/12 13:41:27;;;;;;;;;;;23.70;57.40;;;;;;5112145;28;20479;-78
2022/05/12 13:43:59;;;;;;;;;;;23.80;57.70;;;;;;5112346;28;19930;-79
2022/05/12 13:46:26;;;;;;;;;;;23.30;57.00;;;;;;5111900;28;19924;-78
2022/05/12 13:48:51;;;;;;;;;;;22.80;57.60;;;;;;5112380;28;19985;-78
2022/05/12 13:51:35;;;;;;;;;;;23.20;57.80;;;;;;5111978;28;20693;-78
2022/05/12 13:54:08;;;;;;;;;;;23.70;54.50;;;;;;5111813;28;20274;-78
2022/05/12 13:56:34;;;;;;;;;;;23.70;53.70;;;;;;5111863;28;20331;-78
2022/05/12 13:59:12;;;;;;;;;;;24.00;54.00;;;;;;5111595;28;20437;-78
2022/05/12 14:01:38;;;;;;;;;;;24.40;53.50;;;;;;5111867;28;20455;-79
2022/05/12 14:04:04;;;;;;;;;;;24.70;52.70;;;;;;5111875;28;19924;-78
2022/05/12 14:06:31;;;;;;;;;;;24.10;51.80;;;;;;5093848;28;20438;-78
2022/05/12 14:09:06;;;;;;;;;;;23.40;52.90;;;;;;5111296;28;19924;-78
2022/05/12 14:11:32;;;;;;;;;;;23.50;54.00;;;;;;5111991;28;19924;-78
2022/05/12 14:19:41;;;;;;;;;;;23.80;50.50;;;;;;5111481;28;19924;-78
2022/05/12 14:22:08;;;;;;;;;;;22.90;51.60;;;;;;5111391;28;19982;-78
2022/05/12 14:24:35;;;;;;;;;;;22.50;53.00;;;;;;5110702;28;19989;-78
2022/05/12 14:27:01;;;;;;;;;;;22.20;53.90;;;;;;5111493;28;19931;-78
2022/05/12 14:29:27;;;;;;;;;;;22.00;54.60;;;;;;5111270;28;19928;-77
2022/05/12 14:31:53;;;;;;;;;;;22.10;54.30;;;;;;5111169;28;19949;-78
2022/05/12 14:34:19;;;;;;;;;;;22.60;54.50;;;;;;5092660;28;19931;-78
2022/05/12 14:36:48;;;;;;;;;;;22.40;54.80;;;;;;5111343;28;19931;-78
2022/05/12 14:39:14;;;;;;;;;;;21.80;55.00;;;;;;5093033;28;20658;-78
2022/05/12 14:41:39;;;;;;;;;;;21.30;55.50;;;;;;5111087;28;19934;-78
2022/05/12 14:44:06;;;;;;;;;;;21.40;55.50;;;;;;5092522;28;20354;-78
2022/05/12 14:46:39;;;;;;;;;;;21.20;55.30;;;;;;5076087;28;19924;-78
2022/05/12 14:49:06;;;;;;;;;;;21.00;56.20;;;;;;5093373;28;20392;-78
2022/05/12 14:51:32;;;;;;;;;;;21.30;56.50;;;;;;5092688;28;20010;-78
2022/05/12 14:53:57;;;;;;;;;;;22.20;56.10;;;;;;5092516;28;19927;-78
2022/05/12 14:56:23;;;;;;;;;;;22.70;55.00;;;;;;5110167;28;20330;-78
2022/05/12 14:58:49;;;;;;;;;;;23.10;54.10;;;;;;5092534;28;20368;-78